createdAt,value
2023-03-29T00:01:55.217Z,19.35558
2023-03-29T00:06:56.931Z,17.44252
2023-03-29T00:11:58.389Z,17.17037
2023-03-29T00:17:00.033Z,18.68187
2023-03-29T00:22:01.467Z,18.91066
2023-03-29T00:27:02.933Z,18.46784
2023-03-29T00:32:04.635Z,19.58116
2023-03-29T00:37:06.162Z,20.47682
2023-03-29T00:42:07.559Z,22.42256
2023-03-29T00:47:08.966Z,21.83625
2023-03-29T00:52:10.417Z,24.69432
2023-03-29T00:57:11.836Z,23.97162
2023-03-29T01:02:13.445Z,26.93033
2023-03-29T01:07:14.962Z,26.60966
2023-03-29T01:12:17.230Z,28.18829
2023-03-29T01:17:18.826Z,26.19126
2023-03-29T01:22:20.326Z,28.58771
2023-03-29T01:27:21.853Z,29.30094
2023-03-29T01:32:23.386Z,28.69768
2023-03-29T01:37:24.996Z,27.4251
2023-03-29T01:42:26.443Z,29.04203
2023-03-29T01:47:27.923Z,28.55185
2023-03-29T01:52:29.561Z,30.11291
2023-03-29T01:57:30.952Z,31.65204
2023-03-29T02:02:32.621Z,30.87818
2023-03-29T02:07:34.307Z,30.60442
2023-03-29T02:12:35.761Z,31.76414
2023-03-29T02:17:37.211Z,33.1006
2023-03-29T02:22:38.609Z,32.62008
2023-03-29T02:27:40.070Z,32.93814
2023-03-29T02:32:41.537Z,33.40484
2023-03-29T02:37:42.930Z,35.67349
2023-03-29T02:42:44.395Z,36.38792
2023-03-29T02:47:45.881Z,36.40442
2023-03-29T02:52:47.416Z,34.23519
2023-03-29T02:57:48.841Z,34.94982
2023-03-29T03:02:50.589Z,37.05652
2023-03-29T03:07:52.077Z,38.66004
2023-03-29T03:12:53.524Z,38.39205
2023-03-29T03:17:55.066Z,40.68844
2023-03-29T03:22:56.643Z,37.82259
2023-03-29T03:27:58.061Z,40.05243
2023-03-29T03:32:59.523Z,41.54155
2023-03-29T03:38:01.043Z,40.82321
2023-03-29T03:43:02.709Z,39.24073
2023-03-29T03:48:04.546Z,38.72699
2023-03-29T03:53:06.006Z,41.81528
2023-03-29T03:58:07.398Z,41.22405
2023-03-29T04:03:09.171Z,39.80349
2023-03-29T04:08:10.830Z,40.5376
2023-03-29T04:13:12.283Z,44.08099
2023-03-29T04:18:13.806Z,43.63207
2023-03-29T04:23:15.268Z,43.22483
2023-03-29T04:28:16.694Z,43.28088
2023-03-29T04:33:18.211Z,41.71354
2023-03-29T04:38:19.617Z,43.01844
2023-03-29T04:43:21.012Z,44.36128
2023-03-29T04:48:22.578Z,45.07404
2023-03-29T04:53:24.168Z,42.8785
2023-03-29T04:58:29.551Z,45.51194
2023-03-29T05:03:33.554Z,46.62949
2023-03-29T05:08:34.933Z,43.85234
2023-03-29T05:13:36.392Z,45.55606
2023-03-29T05:18:37.784Z,45.35787
2023-03-29T05:23:39.246Z,45.47013
2023-03-29T05:28:40.885Z,44.69123
2023-03-29T05:33:42.298Z,43.36361
2023-03-29T05:38:43.686Z,44.50313
2023-03-29T05:43:45.215Z,45.49932
2023-03-29T05:48:46.698Z,45.30737
2023-03-29T05:53:48.113Z,46.97704
2023-03-29T05:58:49.649Z,44.98988
2023-03-29T06:03:51.247Z,45.3896
2023-03-29T06:08:52.732Z,48.41926
2023-03-29T06:13:54.144Z,46.66032
2023-03-29T06:18:55.887Z,44.77197
2023-03-29T06:23:57.331Z,47.3881
2023-03-29T06:28:59.068Z,47.43844
2023-03-29T06:34:00.709Z,43.42998
2023-03-29T06:39:02.213Z,46.34509
2023-03-29T06:44:03.531Z,47.90783
2023-03-29T06:49:04.938Z,47.22674
2023-03-29T06:54:06.329Z,47.96475
2023-03-29T06:59:07.717Z,48.75657
2023-03-29T07:04:09.371Z,53.34595
2023-03-29T07:09:10.894Z,49.67478
2023-03-29T07:14:12.301Z,48.95869
2023-03-29T07:19:13.703Z,48.79758
2023-03-29T07:24:15.129Z,48.19286
2023-03-29T07:29:16.573Z,48.0997
2023-03-29T07:34:17.973Z,48.91078
2023-03-29T07:39:19.412Z,52.77767
2023-03-29T07:44:20.793Z,52.5495
2023-03-29T07:49:22.415Z,52.33965
2023-03-29T07:54:23.815Z,51.76853
2023-03-29T07:59:25.214Z,52.57014
2023-03-29T08:04:27.034Z,52.60712
2023-03-29T08:09:28.546Z,52.41473
2023-03-29T08:14:30.267Z,53.47679
2023-03-29T08:19:31.729Z,50.37559
2023-03-29T08:24:33.136Z,48.23054
2023-03-29T08:29:34.589Z,52.65459
2023-03-29T08:34:36.058Z,51.81472
2023-03-29T08:39:38.520Z,53.8232
2023-03-29T08:44:41.347Z,54.77531
2023-03-29T08:49:42.955Z,55.37897
2023-03-29T08:54:44.493Z,50.41859
2023-03-29T08:59:45.896Z,53.14626
2023-03-29T09:04:47.404Z,54.24269
2023-03-29T09:09:48.887Z,54.26645
2023-03-29T09:14:50.355Z,55.4968
2023-03-29T09:19:51.917Z,54.37672
2023-03-29T09:24:53.307Z,55.83313
2023-03-29T09:29:54.724Z,56.97429
2023-03-29T09:34:56.179Z,55.35936
2023-03-29T09:39:57.589Z,54.46342
2023-03-29T09:44:59.053Z,56.27317
2023-03-29T09:50:00.477Z,56.53202
2023-03-29T09:55:02.128Z,56.709
2023-03-29T10:00:03.728Z,54.77959
2023-03-29T10:05:05.161Z,58.50573
2023-03-29T10:10:06.622Z,59.31746
2023-03-29T10:15:13.891Z,56.62887
2023-03-29T10:20:21.448Z,57.08718
2023-03-29T10:25:22.857Z,54.95423
2023-03-29T10:30:24.250Z,59.03174
2023-03-29T10:35:25.634Z,59.09467
2023-03-29T10:40:27.077Z,58.0961
2023-03-29T10:45:28.480Z,56.55332
2023-03-29T10:50:30.058Z,56.51378
2023-03-29T10:55:31.485Z,58.70957
2023-03-29T11:00:32.921Z,57.87831
2023-03-29T11:05:34.370Z,56.79645
2023-03-29T11:10:35.746Z,58.35512
2023-03-29T11:15:37.212Z,58.28094
2023-03-29T11:20:38.711Z,58.60336
2023-03-29T11:25:40.172Z,54.56948
2023-03-29T11:30:41.580Z,59.02868
2023-03-29T11:35:43.064Z,58.18262
2023-03-29T11:40:44.459Z,58.91821
2023-03-29T11:45:45.948Z,58.73183
2023-03-29T11:50:47.474Z,58.13744
2023-03-29T11:55:48.866Z,58.73416
2023-03-29T12:00:50.402Z,59.47028
2023-03-29T12:05:51.860Z,58.62147
2023-03-29T12:10:53.391Z,59.37898
2023-03-29T12:15:54.770Z,55.58225
2023-03-29T12:20:56.200Z,60.74341
2023-03-29T12:25:57.593Z,63.26621
2023-03-29T12:30:58.969Z,64.16365
2023-03-29T12:36:00.414Z,63.11955
2023-03-29T12:41:02.138Z,62.31198
2023-03-29T12:46:04.529Z,63.10094
2023-03-29T12:51:06.278Z,59.78473
2023-03-29T12:56:07.700Z,61.05443
2023-03-29T13:01:09.226Z,61.85446
2023-03-29T13:06:11.049Z,60.64402
2023-03-29T13:11:12.436Z,58.8642
2023-03-29T13:16:13.914Z,58.11393
2023-03-29T13:21:15.572Z,62.56344
2023-03-29T13:26:16.959Z,62.5875
2023-03-29T13:31:18.456Z,58.86434
2023-03-29T13:36:19.947Z,59.1508
2023-03-29T13:41:21.458Z,58.13292
2023-03-29T13:46:22.943Z,58.29617
2023-03-29T13:51:24.767Z,61.58077
2023-03-29T13:56:26.296Z,61.82424
2023-03-29T14:01:27.899Z,63.07661
2023-03-29T14:06:29.377Z,62.01589
2023-03-29T14:11:30.771Z,61.56105
2023-03-29T14:16:32.196Z,63.0308
2023-03-29T14:21:33.664Z,63.66423
2023-03-29T14:26:35.190Z,63.67387
2023-03-29T14:31:36.672Z,63.92902
2023-03-29T14:36:38.183Z,62.51671
2023-03-29T14:41:39.644Z,62.12222
2023-03-29T14:46:41.165Z,60.95464
2023-03-29T14:51:42.667Z,56.57888
2023-03-29T14:56:44.087Z,53.04676
2023-03-29T15:01:45.613Z,50.18761
2023-03-29T15:06:47.038Z,49.59157
2023-03-29T15:11:48.492Z,49.48442
2023-03-29T15:16:49.986Z,50.14391
2023-03-29T15:21:51.447Z,50.00976
2023-03-29T15:26:52.872Z,48.81282
2023-03-29T15:31:54.441Z,48.21917
2023-03-29T15:36:56.066Z,46.86158
2023-03-29T15:41:57.723Z,46.65148
2023-03-29T15:46:59.250Z,45.10626
2023-03-29T15:52:00.660Z,44.6541
2023-03-29T15:57:02.157Z,44.1755
2023-03-29T16:02:03.904Z,43.89906
2023-03-29T16:07:05.437Z,44.13403
2023-03-29T16:12:06.875Z,41.35299
2023-03-29T16:17:08.298Z,42.69208
2023-03-29T16:22:09.738Z,43.13341
2023-03-29T16:27:11.146Z,41.95185
2023-03-29T16:32:12.785Z,39.59923
2023-03-29T16:37:14.341Z,38.59496
2023-03-29T16:42:15.854Z,36.75701
2023-03-29T16:47:17.323Z,36.26968
2023-03-29T16:52:18.921Z,35.7662
2023-03-29T16:57:20.606Z,34.82679
2023-03-29T17:02:22.128Z,37.93451
2023-03-29T17:07:23.702Z,37.41333
2023-03-29T17:12:25.146Z,35.88033
2023-03-29T17:17:26.589Z,36.34729
2023-03-29T17:22:28.047Z,35.25635
2023-03-29T17:27:29.486Z,34.8872
2023-03-29T17:32:30.887Z,34.8818
2023-03-29T17:37:32.479Z,35.06623
2023-03-29T17:42:33.895Z,34.1014
2023-03-29T17:47:35.344Z,32.81836
2023-03-29T17:52:37.028Z,32.13086
2023-03-29T17:57:38.513Z,30.81275
2023-03-29T18:02:40.122Z,30.10604
2023-03-29T18:07:41.597Z,28.68029
2023-03-29T18:12:42.979Z,29.4025
2023-03-29T18:17:44.407Z,27.99819
2023-03-29T18:22:45.795Z,27.91651
2023-03-29T18:27:47.306Z,28.94494
2023-03-29T18:32:48.782Z,28.97136
2023-03-29T18:37:50.234Z,27.87852
2023-03-29T18:42:51.653Z,28.8001
2023-03-29T18:47:53.152Z,28.39067
2023-03-29T18:52:54.547Z,27.78208
2023-03-29T18:57:55.932Z,25.52493
2023-03-29T19:02:57.595Z,27.90189
2023-03-29T19:07:59.248Z,26.79345
2023-03-29T19:13:00.667Z,26.94521
2023-03-29T19:18:02.186Z,25.81657
2023-03-29T19:23:03.609Z,27.47897
2023-03-29T19:28:04.982Z,26.69942
2023-03-29T19:33:06.582Z,26.66036
2023-03-29T19:38:08.076Z,26.6127
2023-03-29T19:43:09.451Z,25.79642
2023-03-29T19:53:13.644Z,25.08745
2023-03-29T19:58:15.109Z,24.56096
2023-03-29T20:03:16.631Z,24.70423
2023-03-29T20:08:18.152Z,22.76823
2023-03-29T20:13:31.297Z,23.17699
2023-03-29T20:18:39.744Z,22.94343
2023-03-29T20:23:41.164Z,22.14954
2023-03-29T20:28:42.623Z,20.53343
2023-03-29T20:33:44.026Z,21.59572
2023-03-29T20:38:45.748Z,21.8775
2023-03-29T20:43:47.296Z,21.6824
2023-03-29T20:48:48.730Z,21.10636
2023-03-29T20:53:50.147Z,21.28731
2023-03-29T20:58:51.569Z,19.62093
2023-03-29T21:03:53.018Z,20.22398
2023-03-29T21:08:54.480Z,18.85062
2023-03-29T21:13:55.866Z,18.03272
2023-03-29T21:18:57.248Z,17.59351
2023-03-29T21:23:58.666Z,18.22219
2023-03-29T21:29:00.297Z,19.20876
2023-03-29T21:34:02.091Z,18.75895
2023-03-29T21:39:03.547Z,16.99745
2023-03-29T21:44:04.975Z,19.56379
2023-03-29T21:49:06.435Z,18.9871
2023-03-29T21:54:07.818Z,16.48389
2023-03-29T21:59:09.263Z,15.24321
2023-03-29T22:04:10.749Z,16.31693
2023-03-29T22:09:12.275Z,16.62062
2023-03-29T22:14:13.725Z,16.55532
2023-03-29T22:19:15.339Z,16.89648
2023-03-29T22:24:16.892Z,14.40377
2023-03-29T22:29:18.314Z,15.61181
2023-03-29T22:34:19.733Z,17.14984
2023-03-29T22:39:21.189Z,14.70144
2023-03-29T22:44:22.622Z,15.57962
2023-03-29T22:49:24.043Z,16.21908
2023-03-29T22:54:25.606Z,17.15303
2023-03-29T22:59:27.125Z,16.90755
2023-03-29T23:04:28.581Z,16.20257
2023-03-29T23:09:30.111Z,17.51887
2023-03-29T23:14:31.531Z,15.44189
2023-03-29T23:19:33.139Z,14.90849
2023-03-29T23:24:34.680Z,15.93271
2023-03-29T23:29:36.145Z,15.52019
2023-03-29T23:34:37.574Z,15.74498
2023-03-29T23:39:39.116Z,14.94925
2023-03-29T23:44:40.536Z,16.13582
2023-03-29T23:49:41.914Z,15.23007
2023-03-29T23:54:43.374Z,15.03729
2023-03-29T23:59:44.976Z,15.99085
